sensor_id;sensor_type;location;lat;lon;timestamp;P1;durP1;ratioP1;P2;durP2;ratioP2
4603;SDS011;2314;48.272;11.562;2022-10-23T00:01:32;135.43;;;7.80;;
4603;SDS011;2314;48.272;11.562;2022-10-23T00:04:01;130.27;;;7.67;;
4603;SDS011;2314;48.272;11.562;2022-10-23T00:06:31;133.07;;;7.17;;
4603;SDS011;2314;48.272;11.562;2022-10-23T00:08:59;129.47;;;7.87;;
4603;SDS011;2314;48.272;11.562;2022-10-23T00:11:28;129.17;;;6.50;;
4603;SDS011;2314;48.272;11.562;2022-10-23T00:13:56;129.57;;;6.40;;
4603;SDS011;2314;48.272;11.562;2022-10-23T00:16:26;129.17;;;7.00;;
4603;SDS011;2314;48.272;11.562;2022-10-23T00:18:55;130.67;;;6.40;;
4603;SDS011;2314;48.272;11.562;2022-10-23T00:21:22;132.57;;;7.20;;
4603;SDS011;2314;48.272;11.562;2022-10-23T00:23:50;135.77;;;7.13;;
4603;SDS011;2314;48.272;11.562;2022-10-23T00:26:18;136.67;;;7.50;;
4603;SDS011;2314;48.272;11.562;2022-10-23T00:28:46;132.27;;;6.90;;
4603;SDS011;2314;48.272;11.562;2022-10-23T00:31:15;128.90;;;6.40;;
4603;SDS011;2314;48.272;11.562;2022-10-23T00:33:44;129.23;;;7.10;;
4603;SDS011;2314;48.272;11.562;2022-10-23T00:36:13;126.57;;;5.97;;
4603;SDS011;2314;48.272;11.562;2022-10-23T00:38:42;127.97;;;6.10;;
4603;SDS011;2314;48.272;11.562;2022-10-23T00:41:12;132.57;;;5.90;;
4603;SDS011;2314;48.272;11.562;2022-10-23T00:43:57;128.57;;;6.10;;
4603;SDS011;2314;48.272;11.562;2022-10-23T00:46:32;129.37;;;6.93;;
4603;SDS011;2314;48.272;11.562;2022-10-23T00:49:00;130.37;;;6.50;;
4603;SDS011;2314;48.272;11.562;2022-10-23T00:51:32;128.83;;;6.47;;
4603;SDS011;2314;48.272;11.562;2022-10-23T00:54:04;131.27;;;6.87;;
4603;SDS011;2314;48.272;11.562;2022-10-23T00:56:32;129.60;;;6.37;;
4603;SDS011;2314;48.272;11.562;2022-10-23T00:59:03;130.07;;;6.13;;
4603;SDS011;2314;48.272;11.562;2022-10-23T01:01:30;132.00;;;6.40;;
4603;SDS011;2314;48.272;11.562;2022-10-23T01:03:57;132.57;;;6.90;;
4603;SDS011;2314;48.272;11.562;2022-10-23T01:06:27;126.83;;;5.50;;
4603;SDS011;2314;48.272;11.562;2022-10-23T01:09:03;133.00;;;6.53;;
4603;SDS011;2314;48.272;11.562;2022-10-23T01:11:40;130.30;;;6.33;;
4603;SDS011;2314;48.272;11.562;2022-10-23T01:14:15;129.27;;;6.57;;
4603;SDS011;2314;48.272;11.562;2022-10-23T01:16:51;129.90;;;5.97;;
4603;SDS011;2314;48.272;11.562;2022-10-23T01:19:29;132.57;;;6.17;;
4603;SDS011;2314;48.272;11.562;2022-10-23T01:22:18;131.43;;;5.80;;
4603;SDS011;2314;48.272;11.562;2022-10-23T01:25:05;131.37;;;5.70;;
4603;SDS011;2314;48.272;11.562;2022-10-23T01:27:51;127.37;;;5.67;;
4603;SDS011;2314;48.272;11.562;2022-10-23T01:30:22;130.10;;;6.17;;
4603;SDS011;2314;48.272;11.562;2022-10-23T01:32:50;129.30;;;5.27;;
4603;SDS011;2314;48.272;11.562;2022-10-23T01:35:22;127.00;;;5.70;;
4603;SDS011;2314;48.272;11.562;2022-10-23T01:37:54;125.53;;;4.90;;
4603;SDS011;2314;48.272;11.562;2022-10-23T01:40:28;126.80;;;4.87;;
4603;SDS011;2314;48.272;11.562;2022-10-23T01:43:02;127.20;;;5.00;;
4603;SDS011;2314;48.272;11.562;2022-10-23T01:45:35;126.60;;;5.30;;
4603;SDS011;2314;48.272;11.562;2022-10-23T01:48:07;126.60;;;5.40;;
4603;SDS011;2314;48.272;11.562;2022-10-23T01:50:38;127.37;;;5.73;;
4603;SDS011;2314;48.272;11.562;2022-10-23T01:53:07;126.70;;;5.10;;
4603;SDS011;2314;48.272;11.562;2022-10-23T01:55:34;126.87;;;5.13;;
4603;SDS011;2314;48.272;11.562;2022-10-23T01:58:05;127.00;;;5.20;;
4603;SDS011;2314;48.272;11.562;2022-10-23T02:00:33;128.40;;;5.47;;
4603;SDS011;2314;48.272;11.562;2022-10-23T02:03:01;129.77;;;5.73;;
4603;SDS011;2314;48.272;11.562;2022-10-23T02:05:29;128.07;;;5.60;;
4603;SDS011;2314;48.272;11.562;2022-10-23T02:07:57;131.67;;;5.40;;
4603;SDS011;2314;48.272;11.562;2022-10-23T02:10:28;130.37;;;6.03;;
4603;SDS011;2314;48.272;11.562;2022-10-23T02:13:04;129.57;;;5.20;;
4603;SDS011;2314;48.272;11.562;2022-10-23T02:15:37;129.37;;;5.93;;
4603;SDS011;2314;48.272;11.562;2022-10-23T02:18:13;127.00;;;5.43;;
4603;SDS011;2314;48.272;11.562;2022-10-23T02:20:54;129.70;;;5.50;;
4603;SDS011;2314;48.272;11.562;2022-10-23T02:23:26;128.10;;;5.40;;
4603;SDS011;2314;48.272;11.562;2022-10-23T02:25:58;131.80;;;5.00;;
4603;SDS011;2314;48.272;11.562;2022-10-23T02:28:33;125.60;;;4.80;;
4603;SDS011;2314;48.272;11.562;2022-10-23T02:31:11;130.50;;;5.40;;
4603;SDS011;2314;48.272;11.562;2022-10-23T02:33:41;128.90;;;5.43;;
4603;SDS011;2314;48.272;11.562;2022-10-23T02:36:10;129.40;;;4.67;;
4603;SDS011;2314;48.272;11.562;2022-10-23T02:38:39;125.77;;;4.90;;
4603;SDS011;2314;48.272;11.562;2022-10-23T02:41:18;128.13;;;4.30;;
4603;SDS011;2314;48.272;11.562;2022-10-23T02:44:08;130.80;;;4.93;;
4603;SDS011;2314;48.272;11.562;2022-10-23T02:46:48;128.70;;;5.10;;
4603;SDS011;2314;48.272;11.562;2022-10-23T02:49:21;125.77;;;4.80;;
4603;SDS011;2314;48.272;11.562;2022-10-23T02:51:58;128.57;;;5.00;;
4603;SDS011;2314;48.272;11.562;2022-10-23T02:54:41;126.10;;;4.50;;
4603;SDS011;2314;48.272;11.562;2022-10-23T02:57:31;131.13;;;5.10;;
4603;SDS011;2314;48.272;11.562;2022-10-23T03:00:04;126.03;;;4.47;;
4603;SDS011;2314;48.272;11.562;2022-10-23T03:02:37;126.93;;;4.37;;
4603;SDS011;2314;48.272;11.562;2022-10-23T03:05:11;129.23;;;4.87;;
4603;SDS011;2314;48.272;11.562;2022-10-23T03:07:43;128.20;;;4.60;;
4603;SDS011;2314;48.272;11.562;2022-10-23T03:10:11;124.57;;;4.63;;
4603;SDS011;2314;48.272;11.562;2022-10-23T03:12:38;125.17;;;4.40;;
4603;SDS011;2314;48.272;11.562;2022-10-23T03:15:09;128.93;;;4.50;;
4603;SDS011;2314;48.272;11.562;2022-10-23T03:17:37;124.47;;;4.57;;
4603;SDS011;2314;48.272;11.562;2022-10-23T03:20:05;125.87;;;4.80;;
4603;SDS011;2314;48.272;11.562;2022-10-23T03:22:33;125.07;;;4.57;;
4603;SDS011;2314;48.272;11.562;2022-10-23T03:25:01;124.40;;;4.90;;
4603;SDS011;2314;48.272;11.562;2022-10-23T03:27:28;124.70;;;4.53;;
4603;SDS011;2314;48.272;11.562;2022-10-23T03:29:55;126.63;;;4.70;;
4603;SDS011;2314;48.272;11.562;2022-10-23T03:32:24;126.47;;;4.50;;
4603;SDS011;2314;48.272;11.562;2022-10-23T03:34:51;123.30;;;4.10;;
4603;SDS011;2314;48.272;11.562;2022-10-23T03:37:19;129.17;;;4.80;;
4603;SDS011;2314;48.272;11.562;2022-10-23T03:39:46;124.47;;;4.53;;
4603;SDS011;2314;48.272;11.562;2022-10-23T03:42:13;125.40;;;4.60;;
4603;SDS011;2314;48.272;11.562;2022-10-23T03:44:40;123.40;;;4.37;;
4603;SDS011;2314;48.272;11.562;2022-10-23T03:47:07;123.77;;;4.13;;
4603;SDS011;2314;48.272;11.562;2022-10-23T03:49:37;125.33;;;4.67;;
4603;SDS011;2314;48.272;11.562;2022-10-23T03:52:05;126.40;;;4.27;;
4603;SDS011;2314;48.272;11.562;2022-10-23T03:54:33;125.90;;;4.33;;
4603;SDS011;2314;48.272;11.562;2022-10-23T03:57:00;125.30;;;4.13;;
4603;SDS011;2314;48.272;11.562;2022-10-23T03:59:28;128.90;;;4.40;;
4603;SDS011;2314;48.272;11.562;2022-10-23T04:01:55;124.60;;;4.17;;
4603;SDS011;2314;48.272;11.562;2022-10-23T04:04:22;126.80;;;4.70;;
4603;SDS011;2314;48.272;11.562;2022-10-23T04:06:51;129.47;;;4.83;;
4603;SDS011;2314;48.272;11.562;2022-10-23T04:09:18;125.43;;;4.40;;
4603;SDS011;2314;48.272;11.562;2022-10-23T04:11:45;132.83;;;4.60;;
4603;SDS011;2314;48.272;11.562;2022-10-23T04:14:12;130.50;;;4.60;;
4603;SDS011;2314;48.272;11.562;2022-10-23T04:16:40;124.37;;;4.60;;
4603;SDS011;2314;48.272;11.562;2022-10-23T04:19:07;125.10;;;4.50;;
4603;SDS011;2314;48.272;11.562;2022-10-23T04:21:34;124.07;;;4.33;;
4603;SDS011;2314;48.272;11.562;2022-10-23T04:24:03;124.07;;;4.23;;
4603;SDS011;2314;48.272;11.562;2022-10-23T04:26:31;124.27;;;4.50;;
4603;SDS011;2314;48.272;11.562;2022-10-23T04:28:58;128.30;;;4.87;;
4603;SDS011;2314;48.272;11.562;2022-10-23T04:31:25;136.60;;;5.07;;
4603;SDS011;2314;48.272;11.562;2022-10-23T04:33:52;128.13;;;4.87;;
4603;SDS011;2314;48.272;11.562;2022-10-23T04:36:19;128.90;;;4.60;;
4603;SDS011;2314;48.272;11.562;2022-10-23T04:38:46;126.70;;;4.63;;
4603;SDS011;2314;48.272;11.562;2022-10-23T04:41:14;124.00;;;4.50;;
4603;SDS011;2314;48.272;11.562;2022-10-23T04:43:41;123.87;;;4.30;;
4603;SDS011;2314;48.272;11.562;2022-10-23T04:46:09;126.10;;;4.80;;
4603;SDS011;2314;48.272;11.562;2022-10-23T04:48:36;124.37;;;4.37;;
4603;SDS011;2314;48.272;11.562;2022-10-23T04:51:04;124.67;;;4.50;;
4603;SDS011;2314;48.272;11.562;2022-10-23T04:53:31;124.20;;;4.20;;
4603;SDS011;2314;48.272;11.562;2022-10-23T04:55:59;124.77;;;4.40;;
4603;SDS011;2314;48.272;11.562;2022-10-23T04:58:27;127.27;;;4.93;;
4603;SDS011;2314;48.272;11.562;2022-10-23T05:00:55;128.07;;;4.60;;
4603;SDS011;2314;48.272;11.562;2022-10-23T05:03:22;125.57;;;4.93;;
4603;SDS011;2314;48.272;11.562;2022-10-23T05:05:51;125.30;;;4.80;;
4603;SDS011;2314;48.272;11.562;2022-10-23T05:08:19;126.67;;;5.60;;
4603;SDS011;2314;48.272;11.562;2022-10-23T05:10:47;124.50;;;4.70;;
4603;SDS011;2314;48.272;11.562;2022-10-23T05:13:14;129.80;;;5.60;;
4603;SDS011;2314;48.272;11.562;2022-10-23T05:15:45;125.03;;;4.80;;
4603;SDS011;2314;48.272;11.562;2022-10-23T05:18:13;127.57;;;5.33;;
4603;SDS011;2314;48.272;11.562;2022-10-23T05:20:46;125.57;;;5.23;;
4603;SDS011;2314;48.272;11.562;2022-10-23T05:23:17;126.10;;;5.10;;
4603;SDS011;2314;48.272;11.562;2022-10-23T05:25:47;126.10;;;4.97;;
4603;SDS011;2314;48.272;11.562;2022-10-23T05:28:14;124.73;;;4.90;;
4603;SDS011;2314;48.272;11.562;2022-10-23T05:30:41;124.33;;;4.17;;
4603;SDS011;2314;48.272;11.562;2022-10-23T05:33:10;125.50;;;4.47;;
4603;SDS011;2314;48.272;11.562;2022-10-23T05:35:37;124.23;;;4.10;;
4603;SDS011;2314;48.272;11.562;2022-10-23T05:38:06;127.00;;;4.83;;
4603;SDS011;2314;48.272;11.562;2022-10-23T05:40:33;125.00;;;4.90;;
4603;SDS011;2314;48.272;11.562;2022-10-23T05:43:01;124.27;;;4.70;;
4603;SDS011;2314;48.272;11.562;2022-10-23T05:45:28;125.30;;;5.00;;
4603;SDS011;2314;48.272;11.562;2022-10-23T05:47:55;125.37;;;4.70;;
4603;SDS011;2314;48.272;11.562;2022-10-23T05:50:23;125.57;;;4.80;;
4603;SDS011;2314;48.272;11.562;2022-10-23T05:52:50;124.07;;;4.03;;
4603;SDS011;2314;48.272;11.562;2022-10-23T05:55:17;124.97;;;4.60;;
4603;SDS011;2314;48.272;11.562;2022-10-23T05:57:44;128.17;;;4.50;;
4603;SDS011;2314;48.272;11.562;2022-10-23T06:00:11;126.33;;;5.00;;
4603;SDS011;2314;48.272;11.562;2022-10-23T06:02:39;124.57;;;4.83;;
4603;SDS011;2314;48.272;11.562;2022-10-23T06:05:06;126.43;;;4.60;;
4603;SDS011;2314;48.272;11.562;2022-10-23T06:07:35;126.83;;;5.10;;
4603;SDS011;2314;48.272;11.562;2022-10-23T06:10:02;126.27;;;5.10;;
4603;SDS011;2314;48.272;11.562;2022-10-23T06:12:31;126.70;;;5.57;;
4603;SDS011;2314;48.272;11.562;2022-10-23T06:14:58;124.60;;;5.10;;
4603;SDS011;2314;48.272;11.562;2022-10-23T06:17:25;125.37;;;5.50;;
4603;SDS011;2314;48.272;11.562;2022-10-23T06:19:53;126.50;;;4.97;;
4603;SDS011;2314;48.272;11.562;2022-10-23T06:22:24;125.43;;;5.37;;
4603;SDS011;2314;48.272;11.562;2022-10-23T06:24:53;127.60;;;4.70;;
4603;SDS011;2314;48.272;11.562;2022-10-23T06:27:20;135.20;;;5.60;;
4603;SDS011;2314;48.272;11.562;2022-10-23T06:29:48;128.70;;;5.10;;
4603;SDS011;2314;48.272;11.562;2022-10-23T06:32:15;125.53;;;5.17;;
4603;SDS011;2314;48.272;11.562;2022-10-23T06:34:42;124.40;;;4.67;;
4603;SDS011;2314;48.272;11.562;2022-10-23T06:37:09;126.70;;;5.50;;
4603;SDS011;2314;48.272;11.562;2022-10-23T06:39:36;125.50;;;4.83;;
4603;SDS011;2314;48.272;11.562;2022-10-23T06:42:05;125.37;;;5.20;;
4603;SDS011;2314;48.272;11.562;2022-10-23T06:44:33;124.03;;;4.87;;
4603;SDS011;2314;48.272;11.562;2022-10-23T06:47:00;124.47;;;4.87;;
4603;SDS011;2314;48.272;11.562;2022-10-23T06:49:27;125.00;;;5.20;;
4603;SDS011;2314;48.272;11.562;2022-10-23T06:51:54;127.07;;;5.40;;
4603;SDS011;2314;48.272;11.562;2022-10-23T06:54:21;129.77;;;5.13;;
4603;SDS011;2314;48.272;11.562;2022-10-23T06:56:48;125.30;;;5.03;;
4603;SDS011;2314;48.272;11.562;2022-10-23T06:59:16;127.97;;;4.90;;
4603;SDS011;2314;48.272;11.562;2022-10-23T07:01:43;125.27;;;5.07;;
4603;SDS011;2314;48.272;11.562;2022-10-23T07:04:10;124.30;;;4.87;;
4603;SDS011;2314;48.272;11.562;2022-10-23T07:06:38;126.27;;;5.43;;
4603;SDS011;2314;48.272;11.562;2022-10-23T07:09:05;124.43;;;4.70;;
4603;SDS011;2314;48.272;11.562;2022-10-23T07:11:33;125.30;;;4.83;;
4603;SDS011;2314;48.272;11.562;2022-10-23T07:14:00;124.37;;;4.60;;
4603;SDS011;2314;48.272;11.562;2022-10-23T07:16:28;124.77;;;4.60;;
4603;SDS011;2314;48.272;11.562;2022-10-23T07:18:56;126.07;;;5.40;;
4603;SDS011;2314;48.272;11.562;2022-10-23T07:21:26;125.30;;;4.97;;
4603;SDS011;2314;48.272;11.562;2022-10-23T07:23:56;122.77;;;4.60;;
4603;SDS011;2314;48.272;11.562;2022-10-23T07:26:23;125.87;;;4.80;;
4603;SDS011;2314;48.272;11.562;2022-10-23T07:28:50;123.97;;;5.07;;
4603;SDS011;2314;48.272;11.562;2022-10-23T07:31:19;124.07;;;4.80;;
4603;SDS011;2314;48.272;11.562;2022-10-23T07:33:47;124.10;;;4.57;;
4603;SDS011;2314;48.272;11.562;2022-10-23T07:36:15;124.47;;;4.83;;
4603;SDS011;2314;48.272;11.562;2022-10-23T07:38:42;124.87;;;5.30;;
4603;SDS011;2314;48.272;11.562;2022-10-23T07:41:09;123.60;;;4.63;;
4603;SDS011;2314;48.272;11.562;2022-10-23T07:43:37;128.97;;;5.17;;
4603;SDS011;2314;48.272;11.562;2022-10-23T07:46:04;126.60;;;5.20;;
4603;SDS011;2314;48.272;11.562;2022-10-23T07:48:33;123.10;;;4.30;;
4603;SDS011;2314;48.272;11.562;2022-10-23T07:51:03;124.47;;;4.73;;
4603;SDS011;2314;48.272;11.562;2022-10-23T07:53:34;125.20;;;3.80;;
4603;SDS011;2314;48.272;11.562;2022-10-23T07:56:02;121.77;;;4.00;;
4603;SDS011;2314;48.272;11.562;2022-10-23T07:58:36;122.20;;;4.17;;
4603;SDS011;2314;48.272;11.562;2022-10-23T08:01:08;121.17;;;3.47;;
4603;SDS011;2314;48.272;11.562;2022-10-23T08:03:42;122.53;;;3.77;;
4603;SDS011;2314;48.272;11.562;2022-10-23T08:06:10;124.43;;;4.10;;
4603;SDS011;2314;48.272;11.562;2022-10-23T08:08:37;120.13;;;3.83;;
4603;SDS011;2314;48.272;11.562;2022-10-23T08:11:04;134.40;;;3.80;;
4603;SDS011;2314;48.272;11.562;2022-10-23T08:13:32;120.87;;;3.40;;
4603;SDS011;2314;48.272;11.562;2022-10-23T08:15:59;121.13;;;3.50;;
4603;SDS011;2314;48.272;11.562;2022-10-23T08:18:26;120.67;;;3.33;;
4603;SDS011;2314;48.272;11.562;2022-10-23T08:20:58;133.97;;;3.10;;
4603;SDS011;2314;48.272;11.562;2022-10-23T08:23:28;119.93;;;3.40;;
4603;SDS011;2314;48.272;11.562;2022-10-23T08:25:56;120.50;;;2.87;;
4603;SDS011;2314;48.272;11.562;2022-10-23T08:28:25;118.93;;;3.20;;
4603;SDS011;2314;48.272;11.562;2022-10-23T08:30:52;119.10;;;2.80;;
4603;SDS011;2314;48.272;11.562;2022-10-23T08:33:20;117.50;;;2.70;;
4603;SDS011;2314;48.272;11.562;2022-10-23T08:35:47;118.60;;;2.83;;
4603;SDS011;2314;48.272;11.562;2022-10-23T08:38:14;116.97;;;2.57;;
4603;SDS011;2314;48.272;11.562;2022-10-23T08:40:46;122.73;;;2.90;;
4603;SDS011;2314;48.272;11.562;2022-10-23T08:43:16;117.40;;;3.00;;
4603;SDS011;2314;48.272;11.562;2022-10-23T08:45:47;118.47;;;2.80;;
4603;SDS011;2314;48.272;11.562;2022-10-23T08:48:22;118.30;;;3.27;;
4603;SDS011;2314;48.272;11.562;2022-10-23T08:50:55;118.20;;;2.97;;
4603;SDS011;2314;48.272;11.562;2022-10-23T08:53:26;117.07;;;2.70;;
4603;SDS011;2314;48.272;11.562;2022-10-23T08:56:01;117.60;;;2.53;;
4603;SDS011;2314;48.272;11.562;2022-10-23T08:58:33;116.00;;;2.60;;
4603;SDS011;2314;48.272;11.562;2022-10-23T09:01:11;116.17;;;2.40;;
4603;SDS011;2314;48.272;11.562;2022-10-23T09:03:56;117.57;;;2.70;;
4603;SDS011;2314;48.272;11.562;2022-10-23T09:06:25;115.63;;;2.60;;
4603;SDS011;2314;48.272;11.562;2022-10-23T09:09:05;116.37;;;2.70;;
4603;SDS011;2314;48.272;11.562;2022-10-23T09:12:02;115.67;;;2.40;;
4603;SDS011;2314;48.272;11.562;2022-10-23T09:14:44;115.50;;;2.40;;
4603;SDS011;2314;48.272;11.562;2022-10-23T09:17:25;114.70;;;2.13;;
4603;SDS011;2314;48.272;11.562;2022-10-23T09:19:55;116.83;;;2.50;;
4603;SDS011;2314;48.272;11.562;2022-10-23T09:22:31;115.10;;;2.40;;
4603;SDS011;2314;48.272;11.562;2022-10-23T09:24:58;114.47;;;1.93;;
4603;SDS011;2314;48.272;11.562;2022-10-23T09:27:26;117.57;;;2.40;;
4603;SDS011;2314;48.272;11.562;2022-10-23T09:29:54;115.20;;;2.20;;
4603;SDS011;2314;48.272;11.562;2022-10-23T09:32:33;115.27;;;2.17;;
4603;SDS011;2314;48.272;11.562;2022-10-23T09:35:01;113.47;;;2.10;;
4603;SDS011;2314;48.272;11.562;2022-10-23T09:37:30;113.67;;;2.27;;
4603;SDS011;2314;48.272;11.562;2022-10-23T09:40:00;116.63;;;2.00;;
4603;SDS011;2314;48.272;11.562;2022-10-23T09:42:52;113.97;;;1.90;;
4603;SDS011;2314;48.272;11.562;2022-10-23T09:45:27;110.87;;;1.97;;
4603;SDS011;2314;48.272;11.562;2022-10-23T09:50:48;110.20;;;2.00;;
4603;SDS011;2314;48.272;11.562;2022-10-23T09:53:25;109.93;;;1.80;;
4603;SDS011;2314;48.272;11.562;2022-10-23T09:55:59;113.53;;;2.60;;
4603;SDS011;2314;48.272;11.562;2022-10-23T09:58:32;109.50;;;1.80;;
4603;SDS011;2314;48.272;11.562;2022-10-23T10:01:02;109.27;;;1.93;;
4603;SDS011;2314;48.272;11.562;2022-10-23T10:03:30;107.70;;;1.70;;
4603;SDS011;2314;48.272;11.562;2022-10-23T10:05:58;107.50;;;1.60;;
4603;SDS011;2314;48.272;11.562;2022-10-23T10:08:38;106.70;;;1.40;;
4603;SDS011;2314;48.272;11.562;2022-10-23T10:11:10;107.97;;;1.70;;
4603;SDS011;2314;48.272;11.562;2022-10-23T10:13:49;108.97;;;1.93;;
4603;SDS011;2314;48.272;11.562;2022-10-23T10:16:41;107.77;;;1.80;;
4603;SDS011;2314;48.272;11.562;2022-10-23T10:19:27;106.87;;;1.73;;
4603;SDS011;2314;48.272;11.562;2022-10-23T10:22:10;108.37;;;1.70;;
4603;SDS011;2314;48.272;11.562;2022-10-23T10:24:50;109.70;;;1.73;;
4603;SDS011;2314;48.272;11.562;2022-10-23T10:27:28;106.10;;;1.60;;
4603;SDS011;2314;48.272;11.562;2022-10-23T10:30:09;105.60;;;1.73;;
4603;SDS011;2314;48.272;11.562;2022-10-23T10:32:42;106.10;;;1.57;;
4603;SDS011;2314;48.272;11.562;2022-10-23T10:35:33;108.67;;;1.77;;
4603;SDS011;2314;48.272;11.562;2022-10-23T10:44:13;110.53;;;1.63;;
4603;SDS011;2314;48.272;11.562;2022-10-23T10:47:12;109.87;;;1.93;;
4603;SDS011;2314;48.272;11.562;2022-10-23T10:49:48;106.03;;;1.80;;
4603;SDS011;2314;48.272;11.562;2022-10-23T10:52:32;105.67;;;1.50;;
4603;SDS011;2314;48.272;11.562;2022-10-23T10:55:10;105.17;;;1.40;;
4603;SDS011;2314;48.272;11.562;2022-10-23T10:57:44;105.90;;;1.60;;
4603;SDS011;2314;48.272;11.562;2022-10-23T11:00:18;110.60;;;1.90;;
4603;SDS011;2314;48.272;11.562;2022-10-23T11:02:48;109.07;;;1.90;;
4603;SDS011;2314;48.272;11.562;2022-10-23T11:05:25;107.03;;;1.70;;
4603;SDS011;2314;48.272;11.562;2022-10-23T11:07:58;106.90;;;1.57;;
4603;SDS011;2314;48.272;11.562;2022-10-23T11:10:30;106.87;;;1.63;;
4603;SDS011;2314;48.272;11.562;2022-10-23T11:12:59;106.20;;;1.60;;
4603;SDS011;2314;48.272;11.562;2022-10-23T11:15:29;106.10;;;1.43;;
4603;SDS011;2314;48.272;11.562;2022-10-23T11:18:04;107.90;;;1.70;;
4603;SDS011;2314;48.272;11.562;2022-10-23T11:20:54;106.10;;;1.60;;
4603;SDS011;2314;48.272;11.562;2022-10-23T11:23:39;107.37;;;1.70;;
4603;SDS011;2314;48.272;11.562;2022-10-23T11:26:28;108.03;;;1.40;;
4603;SDS011;2314;48.272;11.562;2022-10-23T11:29:20;107.10;;;1.63;;
4603;SDS011;2314;48.272;11.562;2022-10-23T11:32:31;106.90;;;1.50;;
4603;SDS011;2314;48.272;11.562;2022-10-23T11:35:24;107.87;;;1.70;;
4603;SDS011;2314;48.272;11.562;2022-10-23T11:38:08;106.50;;;1.50;;
4603;SDS011;2314;48.272;11.562;2022-10-23T11:40:43;108.20;;;1.73;;
4603;SDS011;2314;48.272;11.562;2022-10-23T11:43:24;107.40;;;1.60;;
4603;SDS011;2314;48.272;11.562;2022-10-23T11:45:53;107.40;;;1.80;;
4603;SDS011;2314;48.272;11.562;2022-10-23T11:48:21;107.50;;;1.60;;
4603;SDS011;2314;48.272;11.562;2022-10-23T11:51:02;109.57;;;1.80;;
4603;SDS011;2314;48.272;11.562;2022-10-23T11:53:37;106.47;;;1.73;;
4603;SDS011;2314;48.272;11.562;2022-10-23T11:56:25;106.97;;;1.50;;
4603;SDS011;2314;48.272;11.562;2022-10-23T11:58:55;106.50;;;1.47;;
4603;SDS011;2314;48.272;11.562;2022-10-23T12:01:25;114.77;;;1.80;;
4603;SDS011;2314;48.272;11.562;2022-10-23T12:04:00;107.00;;;1.50;;
4603;SDS011;2314;48.272;11.562;2022-10-23T12:06:41;106.50;;;1.60;;
4603;SDS011;2314;48.272;11.562;2022-10-23T12:09:21;109.37;;;1.50;;
4603;SDS011;2314;48.272;11.562;2022-10-23T12:14:53;109.23;;;1.57;;
4603;SDS011;2314;48.272;11.562;2022-10-23T12:17:44;106.07;;;1.60;;
4603;SDS011;2314;48.272;11.562;2022-10-23T12:20:22;107.60;;;1.50;;
4603;SDS011;2314;48.272;11.562;2022-10-23T12:23:08;107.77;;;1.80;;
4603;SDS011;2314;48.272;11.562;2022-10-23T12:26:05;106.67;;;1.77;;
4603;SDS011;2314;48.272;11.562;2022-10-23T12:29:10;105.90;;;1.40;;
4603;SDS011;2314;48.272;11.562;2022-10-23T12:31:54;107.03;;;1.60;;
4603;SDS011;2314;48.272;11.562;2022-10-23T12:34:33;106.60;;;1.50;;
4603;SDS011;2314;48.272;11.562;2022-10-23T12:37:12;107.13;;;1.80;;
4603;SDS011;2314;48.272;11.562;2022-10-23T12:40:14;107.00;;;1.63;;
4603;SDS011;2314;48.272;11.562;2022-10-23T12:42:47;107.90;;;2.10;;
4603;SDS011;2314;48.272;11.562;2022-10-23T12:45:21;108.27;;;1.70;;
4603;SDS011;2314;48.272;11.562;2022-10-23T12:47:50;108.33;;;2.03;;
4603;SDS011;2314;48.272;11.562;2022-10-23T12:50:19;107.27;;;1.70;;
4603;SDS011;2314;48.272;11.562;2022-10-23T12:52:52;108.60;;;1.83;;
4603;SDS011;2314;48.272;11.562;2022-10-23T12:55:22;108.00;;;1.90;;
4603;SDS011;2314;48.272;11.562;2022-10-23T12:57:51;108.10;;;1.80;;
4603;SDS011;2314;48.272;11.562;2022-10-23T13:00:20;108.20;;;1.80;;
4603;SDS011;2314;48.272;11.562;2022-10-23T13:02:56;112.97;;;1.87;;
4603;SDS011;2314;48.272;11.562;2022-10-23T13:05:24;108.47;;;1.70;;
4603;SDS011;2314;48.272;11.562;2022-10-23T13:07:52;108.57;;;1.80;;
4603;SDS011;2314;48.272;11.562;2022-10-23T13:10:21;108.37;;;1.77;;
4603;SDS011;2314;48.272;11.562;2022-10-23T13:12:51;118.37;;;2.00;;
4603;SDS011;2314;48.272;11.562;2022-10-23T13:15:21;107.20;;;1.67;;
4603;SDS011;2314;48.272;11.562;2022-10-23T13:17:58;110.03;;;1.60;;
4603;SDS011;2314;48.272;11.562;2022-10-23T13:20:28;107.17;;;1.80;;
4603;SDS011;2314;48.272;11.562;2022-10-23T13:22:59;108.77;;;2.10;;
4603;SDS011;2314;48.272;11.562;2022-10-23T13:25:36;110.67;;;2.00;;
4603;SDS011;2314;48.272;11.562;2022-10-23T13:28:10;108.50;;;1.90;;
4603;SDS011;2314;48.272;11.562;2022-10-23T13:30:57;107.90;;;2.07;;
4603;SDS011;2314;48.272;11.562;2022-10-23T13:33:49;108.10;;;1.80;;
4603;SDS011;2314;48.272;11.562;2022-10-23T13:36:30;111.13;;;2.10;;
4603;SDS011;2314;48.272;11.562;2022-10-23T13:39:02;109.00;;;2.07;;
4603;SDS011;2314;48.272;11.562;2022-10-23T13:41:41;107.40;;;1.70;;
4603;SDS011;2314;48.272;11.562;2022-10-23T13:44:11;108.97;;;1.90;;
4603;SDS011;2314;48.272;11.562;2022-10-23T13:46:40;108.60;;;1.90;;
4603;SDS011;2314;48.272;11.562;2022-10-23T13:49:07;109.07;;;2.00;;
4603;SDS011;2314;48.272;11.562;2022-10-23T13:51:35;110.27;;;1.83;;
4603;SDS011;2314;48.272;11.562;2022-10-23T13:54:09;107.80;;;1.60;;
4603;SDS011;2314;48.272;11.562;2022-10-23T13:56:42;110.57;;;1.80;;
4603;SDS011;2314;48.272;11.562;2022-10-23T13:59:09;107.33;;;1.60;;
4603;SDS011;2314;48.272;11.562;2022-10-23T14:01:36;110.20;;;2.10;;
4603;SDS011;2314;48.272;11.562;2022-10-23T14:04:04;111.83;;;2.10;;
4603;SDS011;2314;48.272;11.562;2022-10-23T14:06:31;108.13;;;1.77;;
4603;SDS011;2314;48.272;11.562;2022-10-23T14:09:02;108.97;;;1.83;;
4603;SDS011;2314;48.272;11.562;2022-10-23T14:11:30;112.37;;;2.00;;
4603;SDS011;2314;48.272;11.562;2022-10-23T14:13:59;109.00;;;1.93;;
4603;SDS011;2314;48.272;11.562;2022-10-23T14:16:26;112.40;;;2.10;;
4603;SDS011;2314;48.272;11.562;2022-10-23T14:18:54;109.87;;;1.90;;
4603;SDS011;2314;48.272;11.562;2022-10-23T14:21:22;116.97;;;2.33;;
4603;SDS011;2314;48.272;11.562;2022-10-23T14:23:50;108.67;;;2.00;;
4603;SDS011;2314;48.272;11.562;2022-10-23T14:26:19;110.57;;;2.10;;
4603;SDS011;2314;48.272;11.562;2022-10-23T14:28:47;111.00;;;2.50;;
4603;SDS011;2314;48.272;11.562;2022-10-23T14:31:19;110.17;;;2.30;;
4603;SDS011;2314;48.272;11.562;2022-10-23T14:33:49;114.80;;;2.67;;
4603;SDS011;2314;48.272;11.562;2022-10-23T14:36:18;114.17;;;2.13;;
4603;SDS011;2314;48.272;11.562;2022-10-23T14:38:46;111.27;;;2.47;;
4603;SDS011;2314;48.272;11.562;2022-10-23T14:41:14;111.97;;;2.40;;
4603;SDS011;2314;48.272;11.562;2022-10-23T14:43:42;111.70;;;2.53;;
4603;SDS011;2314;48.272;11.562;2022-10-23T14:46:10;112.47;;;2.47;;
4603;SDS011;2314;48.272;11.562;2022-10-23T14:48:40;113.27;;;2.97;;
4603;SDS011;2314;48.272;11.562;2022-10-23T14:51:13;112.67;;;2.50;;
4603;SDS011;2314;48.272;11.562;2022-10-23T14:53:43;115.17;;;2.90;;
4603;SDS011;2314;48.272;11.562;2022-10-23T14:56:11;113.27;;;2.53;;
4603;SDS011;2314;48.272;11.562;2022-10-23T14:58:39;111.77;;;2.37;;
4603;SDS011;2314;48.272;11.562;2022-10-23T15:01:06;114.37;;;2.30;;
4603;SDS011;2314;48.272;11.562;2022-10-23T15:03:34;112.93;;;2.47;;
4603;SDS011;2314;48.272;11.562;2022-10-23T15:06:05;113.20;;;2.50;;
4603;SDS011;2314;48.272;11.562;2022-10-23T15:08:33;113.13;;;2.47;;
4603;SDS011;2314;48.272;11.562;2022-10-23T15:11:01;112.90;;;2.20;;
4603;SDS011;2314;48.272;11.562;2022-10-23T15:13:30;112.30;;;2.43;;